createdAt,value
2022-08-01T00:00:50.042Z,12.97
2022-08-01T00:03:17.718Z,11.33
2022-08-01T00:05:47.568Z,19.57
2022-08-01T00:08:15.319Z,13.73
2022-08-01T00:10:43.114Z,14.30
2022-08-01T00:13:10.813Z,16.40
2022-08-01T00:15:38.582Z,13.00
2022-08-01T00:18:06.318Z,15.93
2022-08-01T00:20:34.035Z,14.50
2022-08-01T00:23:04.139Z,15.60
2022-08-01T00:25:34.260Z,12.80
2022-08-01T00:28:02.512Z,16.70
2022-08-01T00:30:32.579Z,16.03
2022-08-01T00:33:00.288Z,14.27
2022-08-01T00:35:27.969Z,17.03
2022-08-01T00:37:55.724Z,17.37
2022-08-01T00:40:25.060Z,17.30
2022-08-01T00:42:52.736Z,19.40
2022-08-01T00:45:20.458Z,21.60
2022-08-01T00:47:48.112Z,19.43
2022-08-01T00:50:23.205Z,18.73
2022-08-01T00:52:53.224Z,17.53
2022-08-01T00:55:22.139Z,26.13
2022-08-01T00:58:03.407Z,17.83
2022-08-01T01:00:42.449Z,17.37
2022-08-01T01:06:43.784Z,18.67
2022-08-01T01:09:23.900Z,22.17
2022-08-01T01:12:00.167Z,20.20
2022-08-01T01:14:47.075Z,26.00
2022-08-01T01:17:18.421Z,22.80
2022-08-01T01:20:09.986Z,20.30
2022-08-01T01:22:48.335Z,24.37
2022-08-01T01:25:42.584Z,20.80
2022-08-01T01:28:18.989Z,20.70
2022-08-01T01:30:53.048Z,27.43
2022-08-01T01:33:22.925Z,23.23
2022-08-01T01:35:54.440Z,19.17
2022-08-01T01:38:24.689Z,25.23
2022-08-01T01:40:54.727Z,21.93
2022-08-01T01:43:28.967Z,23.87
2022-08-01T01:46:04.443Z,21.83
2022-08-01T01:48:35.099Z,26.03
2022-08-01T01:51:04.059Z,23.00
2022-08-01T01:53:35.031Z,24.10
2022-08-01T01:56:04.352Z,26.83
2022-08-01T01:58:34.829Z,22.30
2022-08-01T02:01:05.206Z,25.93
2022-08-01T02:03:44.953Z,25.10
2022-08-01T02:06:15.539Z,26.03
2022-08-01T02:08:44.848Z,23.10
2022-08-01T02:11:22.369Z,24.20
2022-08-01T02:13:55.636Z,23.47
2022-08-01T02:16:27.330Z,22.73
2022-08-01T02:18:55.444Z,23.10
2022-08-01T02:21:28.871Z,29.17
2022-08-01T02:24:05.861Z,25.47
2022-08-01T02:26:35.322Z,22.63
2022-08-01T02:29:07.582Z,31.20
2022-08-01T02:31:41.915Z,24.53
2022-08-01T02:34:15.089Z,22.57
2022-08-01T02:36:45.661Z,21.97
2022-08-01T02:39:15.596Z,27.20
2022-08-01T02:41:47.604Z,30.80
2022-08-01T02:44:22.821Z,27.20
2022-08-01T02:46:54.678Z,27.73
2022-08-01T02:49:23.730Z,39.03
2022-08-01T02:51:53.512Z,24.83
2022-08-01T02:54:24.087Z,33.77
2022-08-01T02:56:53.742Z,30.90
2022-08-01T02:59:26.707Z,27.93
2022-08-01T03:01:57.289Z,31.83
2022-08-01T03:04:27.264Z,24.43
2022-08-01T03:06:59.285Z,33.97
2022-08-01T03:09:28.988Z,29.50
2022-08-01T03:12:00.996Z,39.70
2022-08-01T03:14:31.272Z,31.17
2022-08-01T03:17:02.346Z,31.87
2022-08-01T03:19:31.513Z,37.00
2022-08-01T03:22:00.330Z,34.67
2022-08-01T03:24:29.251Z,40.10
2022-08-01T03:26:59.124Z,29.83
2022-08-01T03:29:31.192Z,40.30
2022-08-01T03:32:02.091Z,39.40
2022-08-01T03:34:30.622Z,35.27
2022-08-01T03:37:04.003Z,39.30
2022-08-01T03:39:35.628Z,39.70
2022-08-01T03:42:09.393Z,36.37
2022-08-01T03:44:40.034Z,41.13
2022-08-01T03:47:10.793Z,39.03
2022-08-01T03:49:43.726Z,43.67
2022-08-01T03:52:13.293Z,37.87
2022-08-01T03:54:46.251Z,38.23
2022-08-01T03:57:20.114Z,43.77
2022-08-01T04:00:03.797Z,40.87
2022-08-01T04:02:42.021Z,36.40
2022-08-01T04:05:10.569Z,34.90
2022-08-01T04:07:40.098Z,37.73
2022-08-01T04:10:09.044Z,34.10
2022-08-01T04:12:36.937Z,39.40
2022-08-01T04:15:06.127Z,35.10
2022-08-01T04:17:33.899Z,38.83
2022-08-01T04:20:02.962Z,39.17
2022-08-01T04:22:31.523Z,44.27
2022-08-01T04:25:02.666Z,37.60
2022-08-01T04:27:50.883Z,38.10
2022-08-01T04:30:24.226Z,38.50
2022-08-01T04:32:55.473Z,37.47
2022-08-01T04:36:02.018Z,34.07
2022-08-01T04:38:18.011Z,36.20
2022-08-01T04:40:47.361Z,38.07
2022-08-01T04:43:15.306Z,41.60
2022-08-01T04:45:45.564Z,38.10
2022-08-01T04:48:15.308Z,39.50
2022-08-01T04:50:44.504Z,39.70
2022-08-01T04:53:15.427Z,35.47
2022-08-01T04:55:43.121Z,36.60
2022-08-01T04:58:15.059Z,35.60
2022-08-01T05:00:45.201Z,34.80
2022-08-01T05:03:12.890Z,37.00
2022-08-01T05:05:40.667Z,34.20
2022-08-01T05:08:09.676Z,41.20
2022-08-01T05:10:37.386Z,37.27
2022-08-01T05:13:05.090Z,37.20
2022-08-01T05:15:32.890Z,32.70
2022-08-01T05:18:00.562Z,35.00
2022-08-01T05:20:28.235Z,35.43
2022-08-01T05:22:55.974Z,37.90
2022-08-01T05:25:57.721Z,34.00
2022-08-01T05:28:19.184Z,37.93
2022-08-01T05:30:47.231Z,37.07
2022-08-01T05:33:15.027Z,41.13
2022-08-01T05:35:48.393Z,36.60
2022-08-01T05:38:16.903Z,36.70
2022-08-01T05:40:45.948Z,36.53
2022-08-01T05:43:13.658Z,41.50
2022-08-01T05:45:42.368Z,36.33
2022-08-01T05:48:10.081Z,38.70
2022-08-01T05:50:37.868Z,30.40
2022-08-01T05:53:05.570Z,36.03
2022-08-01T05:55:33.330Z,41.00
2022-08-01T05:58:02.436Z,35.73
2022-08-01T06:00:30.243Z,40.43
2022-08-01T06:02:57.916Z,34.10
2022-08-01T06:05:25.806Z,37.60
2022-08-01T06:07:53.499Z,33.83
2022-08-01T06:10:21.633Z,28.90
2022-08-01T06:12:49.483Z,27.47
2022-08-01T06:15:18.679Z,25.90
2022-08-01T06:17:46.520Z,20.40
2022-08-01T06:20:14.263Z,24.67
2022-08-01T06:22:43.096Z,23.20
2022-08-01T06:25:11.169Z,19.07
2022-08-01T06:27:38.941Z,19.13
2022-08-01T06:30:08.452Z,17.60
2022-08-01T06:32:37.580Z,17.93
2022-08-01T06:35:06.327Z,15.40
2022-08-01T06:37:34.740Z,18.00
2022-08-01T06:40:03.063Z,16.90
2022-08-01T06:42:32.494Z,18.77
2022-08-01T06:45:00.150Z,19.70
2022-08-01T06:47:27.991Z,24.70
2022-08-01T06:49:57.277Z,17.37
2022-08-01T06:52:25.113Z,24.97
2022-08-01T06:54:53.062Z,14.87
2022-08-01T06:57:20.911Z,14.07
2022-08-01T06:59:54.245Z,15.17
2022-08-01T07:02:22.517Z,13.53
2022-08-01T07:04:50.191Z,12.17
2022-08-01T07:07:19.240Z,13.93
2022-08-01T07:09:46.907Z,14.40
2022-08-01T07:12:14.606Z,15.47
2022-08-01T07:14:42.298Z,13.30
2022-08-01T07:17:09.997Z,15.27
2022-08-01T07:19:38.535Z,15.70
2022-08-01T07:22:06.675Z,12.67
2022-08-01T07:24:35.988Z,14.40
2022-08-01T07:27:23.178Z,13.83
2022-08-01T07:29:51.504Z,15.10
2022-08-01T07:32:19.218Z,12.73
2022-08-01T07:34:46.890Z,12.53
2022-08-01T07:37:14.611Z,12.40
2022-08-01T07:39:43.618Z,12.90
2022-08-01T07:42:11.561Z,11.87
2022-08-01T07:44:39.912Z,11.17
2022-08-01T07:47:07.953Z,9.47
2022-08-01T07:49:40.043Z,12.63
2022-08-01T07:52:09.090Z,10.30
2022-08-01T07:54:36.855Z,12.83
2022-08-01T07:57:06.153Z,11.40
2022-08-01T07:59:33.919Z,10.37
2022-08-01T08:02:01.820Z,10.30
2022-08-01T08:04:29.842Z,10.50
2022-08-01T08:06:57.531Z,9.90
2022-08-01T08:09:25.235Z,9.07
2022-08-01T08:11:52.935Z,10.97
2022-08-01T08:14:23.675Z,9.50
2022-08-01T08:17:00.548Z,8.77
2022-08-01T08:19:37.812Z,11.07
2022-08-01T08:22:07.608Z,6.63
2022-08-01T08:24:35.573Z,7.70
2022-08-01T08:27:04.376Z,8.97
2022-08-01T08:29:33.795Z,10.97
2022-08-01T08:32:02.884Z,7.93
2022-08-01T08:34:31.066Z,8.43
2022-08-01T08:37:00.022Z,10.83
2022-08-01T08:39:30.430Z,9.60
2022-08-01T08:42:01.235Z,9.60
2022-08-01T08:44:28.885Z,9.97
2022-08-01T08:47:00.335Z,9.87
2022-08-01T08:49:36.030Z,10.40
2022-08-01T08:52:09.257Z,9.27
2022-08-01T08:54:38.926Z,10.00
2022-08-01T08:57:07.822Z,7.97
2022-08-01T08:59:35.562Z,7.67
2022-08-01T09:02:07.936Z,7.40
2022-08-01T09:04:36.300Z,7.80
2022-08-01T09:07:06.259Z,6.63
2022-08-01T09:09:34.065Z,5.97
2022-08-01T09:12:01.800Z,6.10
2022-08-01T09:14:31.319Z,4.90
2022-08-01T09:17:09.552Z,5.20
2022-08-01T09:19:41.380Z,7.17
2022-08-01T09:22:10.973Z,8.60
2022-08-01T09:24:40.200Z,8.30
2022-08-01T09:27:22.079Z,7.57
2022-08-01T09:30:01.173Z,7.70
2022-08-01T09:32:36.265Z,6.70
2022-08-01T09:35:29.788Z,7.00
2022-08-01T09:38:14.109Z,6.07
2022-08-01T09:40:49.606Z,6.40
2022-08-01T09:43:18.301Z,7.27
2022-08-01T09:45:49.031Z,6.00
2022-08-01T09:48:20.533Z,6.43
2022-08-01T09:50:52.490Z,5.67
2022-08-01T09:53:24.374Z,5.80
2022-08-01T09:56:10.839Z,5.70
2022-08-01T09:58:56.218Z,6.10
2022-08-01T10:01:26.806Z,5.40
2022-08-01T10:04:10.997Z,5.53
2022-08-01T10:06:40.134Z,5.63
2022-08-01T10:09:09.565Z,5.50
2022-08-01T10:11:39.943Z,4.20
2022-08-01T10:14:08.940Z,4.23
2022-08-01T10:16:38.387Z,3.80
2022-08-01T10:19:11.339Z,4.73
2022-08-01T10:21:58.567Z,4.17
2022-08-01T10:24:29.964Z,3.77
2022-08-01T10:27:05.948Z,3.70
2022-08-01T10:29:45.939Z,3.70
2022-08-01T10:32:28.963Z,3.20
2022-08-01T10:34:59.307Z,3.43
2022-08-01T10:37:35.520Z,4.93
2022-08-01T10:40:31.887Z,4.83
2022-08-01T10:43:00.279Z,4.30
2022-08-01T10:45:30.561Z,3.70
2022-08-01T10:48:04.711Z,3.37
2022-08-01T10:50:41.455Z,4.47
2022-08-01T10:53:16.087Z,3.27
2022-08-01T10:55:55.053Z,4.70
2022-08-01T10:58:24.630Z,3.40
2022-08-01T11:01:25.640Z,2.77
2022-08-01T11:04:17.986Z,2.40
2022-08-01T11:07:04.501Z,1.87
2022-08-01T11:09:40.920Z,4.93
2022-08-01T11:12:13.520Z,2.70
2022-08-01T11:15:29.056Z,1.30
2022-08-01T11:18:00.646Z,4.13
2022-08-01T11:20:31.215Z,1.80
2022-08-01T11:23:29.321Z,1.65
2022-08-01T11:26:28.957Z,2.60
2022-08-01T11:29:23.483Z,1.23
2022-08-01T11:31:52.648Z,1.67
2022-08-01T11:34:20.750Z,1.70
2022-08-01T11:37:05.265Z,7.53
2022-08-01T11:39:38.697Z,6.70
2022-08-01T11:42:21.053Z,2.47
2022-08-01T11:44:52.752Z,1.43
2022-08-01T11:47:40.669Z,3.10
2022-08-01T11:50:28.842Z,1.20
2022-08-01T11:53:00.661Z,1.10
2022-08-01T11:55:31.500Z,1.20
2022-08-01T11:58:02.280Z,1.10
2022-08-01T12:00:32.470Z,1.10
2022-08-01T12:03:01.979Z,1.17
2022-08-01T12:05:34.546Z,2.17
2022-08-01T12:08:03.606Z,1.80
2022-08-01T12:10:47.094Z,1.20
2022-08-01T12:13:15.143Z,1.40
2022-08-01T12:15:43.011Z,1.10
2022-08-01T12:18:10.729Z,1.10
2022-08-01T12:20:55.710Z,4.30
2022-08-01T12:23:24.793Z,1.37
2022-08-01T12:25:55.350Z,2.23
2022-08-01T12:28:23.731Z,1.60
2022-08-01T12:30:51.769Z,1.40
2022-08-01T12:33:21.263Z,2.40
2022-08-01T12:35:49.738Z,2.40
2022-08-01T12:38:19.917Z,1.00
2022-08-01T12:40:52.369Z,2.30
2022-08-01T12:43:27.335Z,1.10
2022-08-01T12:45:58.431Z,1.60
2022-08-01T12:48:27.427Z,2.30
2022-08-01T12:50:58.239Z,1.23
2022-08-01T12:53:27.002Z,4.27
2022-08-01T12:56:08.110Z,1.37
2022-08-01T12:58:37.355Z,3.00
2022-08-01T13:01:06.516Z,1.83
2022-08-01T13:03:34.394Z,1.53
2022-08-01T13:06:02.387Z,1.80
2022-08-01T13:08:32.792Z,2.57
2022-08-01T13:11:03.343Z,2.23
2022-08-01T13:13:40.443Z,1.97
2022-08-01T13:16:12.455Z,1.30
2022-08-01T13:18:50.435Z,2.47
2022-08-01T13:21:20.261Z,1.70
2022-08-01T13:24:04.280Z,1.37
2022-08-01T13:26:46.170Z,1.80
2022-08-01T13:29:17.380Z,2.60
2022-08-01T13:31:46.273Z,1.60
2022-08-01T13:34:14.433Z,1.70
2022-08-01T13:36:48.807Z,1.97
2022-08-01T13:39:35.296Z,2.60
2022-08-01T13:42:03.696Z,3.67
2022-08-01T13:44:33.394Z,2.00
2022-08-01T13:47:01.861Z,1.73
2022-08-01T13:49:40.996Z,1.20
2022-08-01T13:52:09.221Z,2.07
2022-08-01T13:54:37.191Z,1.30
2022-08-01T13:57:05.183Z,3.00
2022-08-01T13:59:34.275Z,2.00
2022-08-01T14:02:02.010Z,1.67
2022-08-01T14:04:29.739Z,3.53
2022-08-01T14:06:57.409Z,1.80
2022-08-01T14:09:26.676Z,2.33
2022-08-01T14:12:00.341Z,3.07
2022-08-01T14:14:28.174Z,2.37
2022-08-01T14:16:57.349Z,1.70
2022-08-01T14:19:38.734Z,1.30
2022-08-01T14:22:08.572Z,1.70
2022-08-01T14:24:36.451Z,1.83
2022-08-01T14:27:06.634Z,1.90
2022-08-01T14:30:01.083Z,2.90
2022-08-01T14:32:28.967Z,1.70
2022-08-01T14:34:56.841Z,2.50
2022-08-01T14:37:28.558Z,1.67
2022-08-01T14:39:57.718Z,2.50
2022-08-01T14:42:26.728Z,3.10
2022-08-01T14:44:54.708Z,1.60
2022-08-01T14:47:24.414Z,2.00
2022-08-01T14:49:52.438Z,2.13
2022-08-01T14:52:20.619Z,2.13
2022-08-01T14:54:48.344Z,3.00
2022-08-01T14:57:19.019Z,2.33
2022-08-01T14:59:46.964Z,2.20
2022-08-01T15:02:17.890Z,2.10
2022-08-01T15:04:47.379Z,1.87
2022-08-01T15:07:15.835Z,1.60
2022-08-01T15:09:44.407Z,2.50
2022-08-01T15:12:12.525Z,2.00
2022-08-01T15:14:52.424Z,1.63
2022-08-01T15:17:22.485Z,2.00
2022-08-01T15:19:54.426Z,2.60
2022-08-01T15:22:23.771Z,2.50
2022-08-01T15:24:56.877Z,1.53
2022-08-01T15:27:25.273Z,2.27
2022-08-01T15:29:53.630Z,2.67
2022-08-01T15:32:21.470Z,1.97
2022-08-01T15:34:49.233Z,4.00
2022-08-01T15:37:18.364Z,2.63
2022-08-01T15:39:46.233Z,3.97
2022-08-01T15:42:20.038Z,4.60
2022-08-01T15:44:53.431Z,3.97
2022-08-01T15:47:21.206Z,4.10
2022-08-01T15:49:52.550Z,3.07
2022-08-01T15:52:23.020Z,2.70
2022-08-01T15:54:51.251Z,2.17
2022-08-01T15:57:18.931Z,3.80
2022-08-01T15:59:46.601Z,1.67
2022-08-01T16:02:14.617Z,6.00
2022-08-01T16:04:42.316Z,5.03
2022-08-01T16:07:10.094Z,2.60
2022-08-01T16:09:40.904Z,4.60
2022-08-01T16:12:10.179Z,3.33
2022-08-01T16:14:37.986Z,2.40
2022-08-01T16:17:05.686Z,3.70
2022-08-01T16:19:33.342Z,3.77
2022-08-01T16:22:01.038Z,3.67
2022-08-01T16:24:29.356Z,2.47
2022-08-01T16:26:58.417Z,3.13
2022-08-01T16:29:30.711Z,2.50
2022-08-01T16:32:24.482Z,2.40
2022-08-01T16:34:46.992Z,2.43
2022-08-01T16:37:16.788Z,3.73
2022-08-01T16:39:47.526Z,3.00
2022-08-01T16:42:18.360Z,2.43
2022-08-01T16:44:46.139Z,4.53
2022-08-01T16:47:17.786Z,4.63
2022-08-01T16:49:45.601Z,3.50
2022-08-01T16:52:13.330Z,2.73
2022-08-01T16:54:41.166Z,8.30
2022-08-01T16:57:09.199Z,4.30
2022-08-01T16:59:41.360Z,3.57
2022-08-01T17:02:10.262Z,2.37
2022-08-01T17:04:38.003Z,4.17
2022-08-01T17:07:05.972Z,2.27
2022-08-01T17:09:33.835Z,2.53
2022-08-01T17:12:01.535Z,4.07
2022-08-01T17:14:29.668Z,2.90
2022-08-01T17:16:58.634Z,2.57
2022-08-01T17:19:32.492Z,2.50
2022-08-01T17:22:01.169Z,5.33
2022-08-01T17:24:29.113Z,2.63
2022-08-01T17:26:56.978Z,2.80
2022-08-01T17:29:24.685Z,2.87
2022-08-01T17:31:52.279Z,2.50
2022-08-01T17:34:21.305Z,2.60
2022-08-01T17:36:49.517Z,2.47
2022-08-01T17:39:21.861Z,2.60
2022-08-01T17:41:51.191Z,2.17
2022-08-01T17:44:18.843Z,3.17
2022-08-01T17:46:46.628Z,5.53
2022-08-01T17:49:14.673Z,2.70
2022-08-01T17:51:43.656Z,4.50
2022-08-01T17:54:11.838Z,4.13
2022-08-01T17:56:44.222Z,2.93
2022-08-01T17:59:13.588Z,3.80
2022-08-01T18:01:45.363Z,2.80
2022-08-01T18:04:13.235Z,4.43
2022-08-01T18:06:58.766Z,3.63
2022-08-01T18:09:26.862Z,2.00
2022-08-01T18:11:54.542Z,4.20
2022-08-01T18:14:22.628Z,2.63
2022-08-01T18:17:11.522Z,5.40
2022-08-01T18:19:39.624Z,2.53
2022-08-01T18:22:26.296Z,2.57
2022-08-01T18:24:56.323Z,2.77
2022-08-01T18:27:23.952Z,2.77
2022-08-01T18:30:12.177Z,4.90
2022-08-01T18:32:39.811Z,3.50
2022-08-01T18:35:14.080Z,3.63
2022-08-01T18:37:49.284Z,2.70
2022-08-01T18:40:23.371Z,4.90
2022-08-01T18:42:51.079Z,2.63
2022-08-01T18:45:18.892Z,3.60
2022-08-01T18:47:48.224Z,3.40
2022-08-01T18:50:16.057Z,3.83
2022-08-01T18:52:45.060Z,2.90
2022-08-01T18:55:12.981Z,2.73
2022-08-01T18:57:42.723Z,3.90
2022-08-01T19:00:11.513Z,9.10
2022-08-01T19:02:39.127Z,3.77
2022-08-01T19:05:07.573Z,3.57
2022-08-01T19:08:05.462Z,3.90
2022-08-01T19:10:24.693Z,4.13
2022-08-01T19:12:52.718Z,3.53
2022-08-01T19:15:20.560Z,4.73
2022-08-01T19:17:48.617Z,2.73
2022-08-01T19:20:16.304Z,4.00
2022-08-01T19:22:44.463Z,4.07
2022-08-01T19:25:14.658Z,4.73
2022-08-01T19:27:46.570Z,3.80
2022-08-01T19:30:15.319Z,2.00
2022-08-01T19:32:43.923Z,3.50
2022-08-01T19:35:14.808Z,3.00
2022-08-01T19:37:46.792Z,5.07
2022-08-01T19:40:26.229Z,3.13
2022-08-01T19:42:57.643Z,3.87
2022-08-01T19:45:29.121Z,3.53
2022-08-01T19:47:57.926Z,2.53
2022-08-01T19:50:26.704Z,3.23
2022-08-01T19:52:56.154Z,5.03
2022-08-01T19:55:25.180Z,3.23
2022-08-01T20:00:43.606Z,6.07
2022-08-01T20:03:11.414Z,6.07
2022-08-01T20:05:39.164Z,3.13
2022-08-01T20:08:07.782Z,3.13
2022-08-01T20:10:37.461Z,4.90
2022-08-01T20:13:05.629Z,3.20
2022-08-01T20:15:33.382Z,4.57
2022-08-01T20:18:02.363Z,4.13
2022-08-01T20:20:30.033Z,5.17
2022-08-01T20:22:59.898Z,4.37
2022-08-01T20:25:39.484Z,5.63
2022-08-01T20:28:10.492Z,6.10
2022-08-01T20:30:38.956Z,4.27
2022-08-01T20:33:09.268Z,3.70
2022-08-01T20:35:51.475Z,5.90
2022-08-01T20:38:23.913Z,3.67
2022-08-01T20:40:53.526Z,9.00
2022-08-01T20:43:22.574Z,5.57
2022-08-01T20:45:51.352Z,6.53
2022-08-01T20:48:21.243Z,5.70
2022-08-01T20:51:07.583Z,4.10
2022-08-01T20:53:40.617Z,6.50
2022-08-01T20:56:13.076Z,5.07
2022-08-01T20:58:59.034Z,8.47
2022-08-01T21:01:30.023Z,6.27
2022-08-01T21:04:11.426Z,5.73
2022-08-01T21:06:42.459Z,4.90
2022-08-01T21:09:14.355Z,4.53
2022-08-01T21:11:49.747Z,5.27
2022-08-01T21:14:21.553Z,7.60
2022-08-01T21:16:57.572Z,4.37
2022-08-01T21:19:28.905Z,7.00
2022-08-01T21:22:09.690Z,11.23
2022-08-01T21:24:45.958Z,5.90
2022-08-01T21:27:33.561Z,6.50
2022-08-01T21:30:04.052Z,6.23
2022-08-01T21:32:33.723Z,5.43
2022-08-01T21:35:05.268Z,7.77
2022-08-01T21:37:32.994Z,5.67
2022-08-01T21:40:09.615Z,6.43
2022-08-01T21:42:39.784Z,8.40
2022-08-01T21:45:10.558Z,5.67
2022-08-01T21:47:38.906Z,5.20
2022-08-01T21:50:09.592Z,5.83
2022-08-01T21:52:44.641Z,5.37
2022-08-01T21:55:21.068Z,8.00
2022-08-01T21:58:02.127Z,9.67
2022-08-01T22:00:30.679Z,5.33
2022-08-01T22:03:11.895Z,10.43
2022-08-01T22:05:50.401Z,5.03
2022-08-01T22:08:25.335Z,7.20
2022-08-01T22:10:59.045Z,5.27
2022-08-01T22:13:27.230Z,6.63
2022-08-01T22:15:57.388Z,5.77
2022-08-01T22:18:26.938Z,5.13
2022-08-01T22:20:56.522Z,5.37
2022-08-01T22:23:24.341Z,7.70
2022-08-01T22:25:53.035Z,3.87
2022-08-01T22:28:22.198Z,7.03
2022-08-01T22:30:51.268Z,7.17
2022-08-01T22:33:19.952Z,9.97
2022-08-01T22:35:49.942Z,6.33
2022-08-01T22:38:20.959Z,6.47
2022-08-01T22:40:51.071Z,9.33
2022-08-01T22:43:39.530Z,6.77
2022-08-01T22:46:15.764Z,7.93
2022-08-01T22:48:47.274Z,4.77
2022-08-01T22:51:27.448Z,6.77
2022-08-01T22:54:04.731Z,10.43
2022-08-01T22:56:37.121Z,9.53
2022-08-01T22:59:10.589Z,5.10
2022-08-01T23:01:42.363Z,5.23
2022-08-01T23:04:33.101Z,8.20
2022-08-01T23:07:06.317Z,9.60
2022-08-01T23:09:53.416Z,6.17
2022-08-01T23:12:24.355Z,5.30
2022-08-01T23:14:53.711Z,8.00
2022-08-01T23:17:26.467Z,5.07
2022-08-01T23:19:58.219Z,6.57
2022-08-01T23:22:28.904Z,10.27
2022-08-01T23:25:05.412Z,5.27
2022-08-01T23:27:51.717Z,5.60
2022-08-01T23:30:26.458Z,5.80
2022-08-01T23:32:54.224Z,6.40
2022-08-01T23:35:21.993Z,9.53
2022-08-01T23:37:50.937Z,7.07
2022-08-01T23:40:20.720Z,4.83
2022-08-01T23:42:53.202Z,4.93
2022-08-01T23:45:21.235Z,7.60
2022-08-01T23:47:48.944Z,6.07
2022-08-01T23:50:16.625Z,7.33
2022-08-01T23:52:48.504Z,4.77
2022-08-01T23:55:17.932Z,7.03
2022-08-01T23:57:47.200Z,6.40
